createdAt,value
2023-02-19T00:02:11.808Z,12.23
2023-02-19T00:04:44.631Z,12.24
2023-02-19T00:07:17.320Z,12.20
2023-02-19T00:09:49.992Z,12.21
2023-02-19T00:12:22.731Z,12.19
2023-02-19T00:14:57.534Z,12.22
2023-02-19T00:17:32.113Z,12.09
2023-02-19T00:20:05.254Z,12.18
2023-02-19T00:22:37.993Z,12.11
2023-02-19T00:25:10.801Z,12.13
2023-02-19T00:27:43.600Z,12.03
2023-02-19T00:30:17.814Z,12.18
2023-02-19T00:32:51.841Z,12.16
2023-02-19T00:35:34.257Z,12.22
2023-02-19T00:38:07.307Z,12.17
2023-02-19T00:40:40.387Z,12.14
2023-02-19T00:43:14.954Z,12.15
2023-02-19T00:45:49.263Z,12.12
2023-02-19T00:48:22.452Z,12.16
2023-02-19T00:50:55.432Z,12.15
2023-02-19T00:53:28.000Z,12.10
2023-02-19T00:56:00.938Z,12.08
2023-02-19T00:58:34.139Z,12.11
2023-02-19T01:01:12.387Z,12.17
2023-02-19T01:03:48.130Z,12.14
2023-02-19T01:06:21.900Z,12.11
2023-02-19T01:08:54.958Z,12.10
2023-02-19T01:11:28.564Z,12.00
2023-02-19T01:14:03.545Z,12.13
2023-02-19T01:16:43.847Z,12.14
2023-02-19T01:19:17.045Z,12.14
2023-02-19T01:21:50.025Z,12.22
2023-02-19T01:24:23.055Z,12.21
2023-02-19T01:26:55.693Z,12.23
2023-02-19T01:29:28.581Z,12.25
2023-02-19T01:32:02.701Z,12.06
2023-02-19T01:34:35.577Z,11.99
2023-02-19T01:37:11.977Z,12.14
2023-02-19T01:39:45.061Z,12.20
2023-02-19T01:42:18.318Z,12.13
2023-02-19T01:45:22.073Z,12.09
2023-02-19T01:48:03.383Z,12.12
2023-02-19T01:50:42.699Z,12.10
2023-02-19T01:53:20.300Z,12.01
2023-02-19T01:55:58.782Z,12.00
2023-02-19T01:58:35.462Z,12.10
2023-02-19T02:01:10.655Z,12.11
2023-02-19T02:03:49.812Z,12.06
2023-02-19T02:06:25.451Z,12.09
2023-02-19T02:09:17.085Z,11.98
2023-02-19T02:11:52.448Z,12.06
2023-02-19T02:14:29.393Z,12.11
2023-02-19T02:17:14.514Z,12.09
2023-02-19T02:20:07.898Z,11.85
2023-02-19T02:22:45.907Z,11.87
2023-02-19T02:25:41.377Z,11.96
2023-02-19T02:28:29.651Z,11.98
2023-02-19T02:31:08.933Z,12.06
2023-02-19T02:33:51.401Z,11.97
2023-02-19T02:36:29.655Z,12.09
2023-02-19T02:39:05.518Z,12.08
2023-02-19T02:42:27.653Z,12.03
2023-02-19T02:45:37.931Z,12.06
2023-02-19T02:48:41.995Z,11.94
2023-02-19T02:51:21.490Z,12.08
2023-02-19T02:54:29.226Z,12.04
2023-02-19T02:57:03.621Z,12.07
2023-02-19T02:59:41.108Z,12.09
2023-02-19T03:02:18.980Z,11.96
2023-02-19T03:05:19.454Z,12.02
2023-02-19T03:07:56.078Z,12.11
2023-02-19T03:10:37.154Z,12.12
2023-02-19T03:13:34.181Z,12.06
2023-02-19T03:16:29.052Z,12.09
2023-02-19T03:19:20.837Z,12.05
2023-02-19T03:22:10.073Z,12.06
2023-02-19T03:25:08.170Z,11.99
2023-02-19T03:27:43.760Z,12.03
2023-02-19T03:30:20.245Z,11.94
2023-02-19T03:32:56.484Z,12.03
2023-02-19T03:35:33.116Z,11.97
2023-02-19T03:38:12.912Z,12.00
2023-02-19T03:40:53.930Z,11.97
2023-02-19T03:43:39.023Z,11.99
2023-02-19T03:46:16.518Z,11.93
2023-02-19T03:48:57.845Z,11.80
2023-02-19T03:51:38.979Z,12.00
2023-02-19T03:54:19.730Z,11.97
2023-02-19T03:56:59.701Z,11.93
2023-02-19T03:59:40.298Z,11.94
2023-02-19T04:02:16.283Z,11.97
2023-02-19T04:04:55.685Z,11.97
2023-02-19T04:07:31.308Z,11.97
2023-02-19T04:10:07.570Z,11.89
2023-02-19T04:12:47.322Z,11.77
2023-02-19T04:15:24.391Z,11.94
2023-02-19T04:18:01.450Z,11.96
2023-02-19T04:20:38.454Z,11.84
2023-02-19T04:23:12.203Z,11.82
2023-02-19T04:25:50.114Z,11.89
2023-02-19T04:28:22.876Z,11.67
2023-02-19T04:30:55.748Z,11.77
2023-02-19T04:33:28.876Z,11.91
2023-02-19T04:36:01.746Z,11.80
2023-02-19T04:38:34.527Z,11.80
2023-02-19T04:41:10.591Z,11.90
2023-02-19T04:43:43.671Z,11.76
2023-02-19T04:46:16.758Z,11.75
2023-02-19T04:48:49.965Z,11.74
2023-02-19T04:51:22.849Z,11.88
2023-02-19T04:53:56.447Z,11.92
2023-02-19T04:56:31.001Z,11.80
2023-02-19T04:59:04.141Z,11.75
2023-02-19T05:01:37.227Z,11.78
2023-02-19T05:04:10.008Z,11.93
2023-02-19T05:06:42.809Z,11.91
2023-02-19T05:09:15.710Z,11.89
2023-02-19T05:11:49.723Z,11.87
2023-02-19T05:14:22.576Z,11.91
2023-02-19T05:16:55.254Z,11.89
2023-02-19T05:19:28.040Z,11.87
2023-02-19T05:22:00.863Z,11.80
2023-02-19T05:24:33.653Z,11.89
2023-02-19T05:27:07.822Z,11.72
2023-02-19T05:29:40.871Z,11.79
2023-02-19T05:32:13.734Z,11.89
2023-02-19T05:34:46.592Z,11.86
2023-02-19T05:37:19.482Z,11.84
2023-02-19T05:39:52.379Z,11.89
2023-02-19T05:42:26.588Z,11.90
2023-02-19T05:44:59.453Z,11.86
2023-02-19T05:47:32.235Z,11.73
2023-02-19T05:50:05.756Z,11.84
2023-02-19T05:52:38.687Z,11.75
2023-02-19T05:55:11.506Z,11.73
2023-02-19T05:57:46.369Z,11.81
2023-02-19T06:00:20.932Z,11.82
2023-02-19T06:02:53.815Z,11.79
2023-02-19T06:05:26.399Z,11.74
2023-02-19T06:07:59.402Z,11.91
2023-02-19T06:10:32.036Z,11.79
2023-02-19T06:13:06.184Z,11.78
2023-02-19T06:15:39.607Z,11.80
2023-02-19T06:18:12.501Z,11.81
2023-02-19T06:20:45.221Z,11.77
2023-02-19T06:23:18.352Z,11.77
2023-02-19T06:25:51.313Z,11.86
2023-02-19T06:28:25.707Z,11.79
2023-02-19T06:30:59.925Z,11.68
2023-02-19T06:33:33.338Z,11.82
2023-02-19T06:36:06.545Z,11.70
2023-02-19T06:38:39.548Z,11.81
2023-02-19T06:41:13.433Z,11.79
2023-02-19T06:43:48.368Z,11.64
2023-02-19T06:46:21.491Z,11.78
2023-02-19T06:48:54.334Z,11.83
2023-02-19T06:51:29.666Z,11.71
2023-02-19T06:54:03.632Z,11.79
2023-02-19T06:56:39.543Z,11.80
2023-02-19T06:59:16.871Z,11.71
2023-02-19T07:01:49.714Z,11.82
2023-02-19T07:04:22.561Z,11.79
2023-02-19T07:06:55.323Z,11.84
2023-02-19T07:09:29.745Z,11.73
2023-02-19T07:12:02.457Z,11.79
2023-02-19T07:14:36.610Z,11.77
2023-02-19T07:17:09.385Z,11.74
2023-02-19T07:19:42.064Z,11.80
2023-02-19T07:22:15.034Z,11.65
2023-02-19T07:24:48.019Z,11.53
2023-02-19T07:27:20.980Z,11.74
2023-02-19T07:29:54.969Z,11.72
2023-02-19T07:32:27.688Z,11.79
2023-02-19T07:35:00.516Z,11.77
2023-02-19T07:37:33.248Z,11.60
2023-02-19T07:40:07.102Z,11.72
2023-02-19T07:42:39.884Z,11.79
2023-02-19T07:45:14.024Z,11.71
2023-02-19T07:47:46.867Z,11.76
2023-02-19T07:50:19.789Z,11.80
2023-02-19T07:52:52.483Z,11.76
2023-02-19T07:55:25.203Z,11.84
2023-02-19T07:57:59.022Z,11.75
2023-02-19T08:00:33.245Z,11.81
2023-02-19T08:03:05.486Z,11.77
2023-02-19T08:05:39.782Z,11.81
2023-02-19T08:08:14.236Z,11.81
2023-02-19T08:11:06.849Z,11.79
2023-02-19T08:13:39.684Z,11.81
2023-02-19T08:16:26.588Z,11.82
2023-02-19T08:19:06.056Z,11.76
2023-02-19T08:21:38.793Z,11.78
2023-02-19T08:24:12.080Z,11.78
2023-02-19T08:26:44.917Z,11.79
2023-02-19T08:29:17.893Z,11.80
2023-02-19T08:31:52.022Z,11.84
2023-02-19T08:34:26.074Z,11.78
2023-02-19T08:37:02.036Z,11.80
2023-02-19T08:39:34.763Z,11.74
2023-02-19T08:42:08.080Z,11.81
2023-02-19T08:44:41.132Z,11.82
2023-02-19T08:47:15.208Z,11.81
2023-02-19T08:49:47.863Z,11.81
2023-02-19T08:52:20.837Z,11.85
2023-02-19T08:54:53.374Z,11.94
2023-02-19T08:57:26.787Z,11.95
2023-02-19T08:59:59.722Z,11.96
2023-02-19T09:02:34.229Z,11.95
2023-02-19T09:05:07.198Z,11.96
2023-02-19T09:07:40.620Z,12.05
2023-02-19T09:10:14.591Z,12.11
2023-02-19T09:12:47.644Z,12.16
2023-02-19T09:15:20.326Z,12.08
2023-02-19T09:17:54.460Z,12.16
2023-02-19T09:20:27.331Z,12.12
2023-02-19T09:22:59.986Z,12.04
2023-02-19T09:25:32.702Z,12.12
2023-02-19T09:28:05.884Z,12.12
2023-02-19T09:30:38.637Z,12.18
2023-02-19T09:33:13.033Z,12.18
2023-02-19T09:35:45.826Z,12.23
2023-02-19T09:38:18.580Z,12.33
2023-02-19T09:40:51.339Z,12.38
2023-02-19T09:43:27.827Z,12.30
2023-02-19T09:46:05.221Z,12.27
2023-02-19T09:48:39.683Z,12.34
2023-02-19T09:51:14.848Z,12.41
2023-02-19T09:53:51.490Z,12.45
2023-02-19T09:56:28.640Z,12.54
2023-02-19T09:59:02.194Z,12.59
2023-02-19T10:01:40.184Z,12.66
2023-02-19T10:04:15.040Z,12.74
2023-02-19T10:06:49.287Z,12.85
2023-02-19T10:09:26.733Z,12.84
2023-02-19T10:12:01.035Z,12.89
2023-02-19T10:14:38.870Z,12.93
2023-02-19T10:17:22.775Z,12.88
2023-02-19T10:19:57.868Z,12.91
2023-02-19T10:22:31.078Z,12.94
2023-02-19T10:25:04.098Z,12.88
2023-02-19T10:27:37.042Z,12.90
2023-02-19T10:30:19.544Z,12.93
2023-02-19T10:33:05.102Z,12.87
2023-02-19T10:35:52.764Z,12.88
2023-02-19T10:38:29.287Z,12.90
2023-02-19T10:41:06.053Z,12.91
2023-02-19T10:43:42.289Z,12.84
2023-02-19T10:46:18.250Z,12.89
2023-02-19T10:48:54.317Z,12.86
2023-02-19T10:51:35.240Z,12.81
2023-02-19T10:54:16.674Z,12.79
2023-02-19T10:56:49.736Z,12.88
2023-02-19T10:59:26.475Z,12.82
2023-02-19T11:02:00.860Z,12.81
2023-02-19T11:04:37.972Z,12.78
2023-02-19T11:07:18.982Z,12.74
2023-02-19T11:09:53.638Z,12.76
2023-02-19T11:12:29.707Z,12.72
2023-02-19T11:15:14.467Z,12.82
2023-02-19T11:17:56.509Z,12.83
2023-02-19T11:20:31.968Z,12.80
2023-02-19T11:23:15.303Z,12.79
2023-02-19T11:25:50.405Z,12.83
2023-02-19T11:28:29.364Z,12.85
2023-02-19T11:31:16.493Z,12.82
2023-02-19T11:33:56.554Z,12.86
2023-02-19T11:36:32.288Z,12.86
2023-02-19T11:39:22.599Z,12.88
2023-02-19T11:42:13.288Z,12.90
2023-02-19T11:44:55.154Z,12.93
2023-02-19T11:47:45.253Z,12.98
2023-02-19T11:50:24.105Z,12.99
2023-02-19T11:53:11.616Z,13.00
2023-02-19T11:55:57.521Z,13.07
2023-02-19T11:59:02.678Z,13.07
2023-02-19T12:01:51.717Z,13.03
2023-02-19T12:05:02.266Z,12.99
2023-02-19T12:08:03.699Z,13.10
2023-02-19T12:10:52.898Z,13.11
2023-02-19T12:13:35.633Z,13.15
2023-02-19T12:16:21.108Z,13.20
2023-02-19T12:19:23.032Z,13.22
2023-02-19T12:22:17.813Z,13.31
2023-02-19T12:25:16.114Z,13.30
2023-02-19T12:28:03.878Z,13.30
2023-02-19T12:30:55.857Z,13.33
2023-02-19T12:33:46.235Z,13.43
2023-02-19T12:36:28.948Z,13.37
2023-02-19T12:39:08.917Z,13.40
2023-02-19T12:41:47.976Z,13.51
2023-02-19T12:44:31.391Z,13.41
2023-02-19T12:47:07.560Z,13.49
2023-02-19T12:49:46.327Z,13.45
2023-02-19T12:52:23.854Z,13.48
2023-02-19T12:55:19.167Z,13.33
2023-02-19T12:57:53.182Z,13.39
2023-02-19T13:00:34.685Z,13.32
2023-02-19T13:03:14.020Z,13.25
2023-02-19T13:05:53.977Z,13.29
2023-02-19T13:08:34.143Z,13.32
2023-02-19T13:11:15.571Z,13.20
2023-02-19T13:13:52.996Z,13.28
2023-02-19T13:16:33.080Z,13.32
2023-02-19T13:19:06.556Z,13.24
2023-02-19T13:21:56.991Z,13.28
2023-02-19T13:24:33.511Z,13.24
2023-02-19T13:27:21.078Z,13.26
2023-02-19T13:30:07.325Z,13.26
2023-02-19T13:32:56.891Z,13.34
2023-02-19T13:35:56.431Z,13.23
2023-02-19T13:38:29.502Z,13.25
2023-02-19T13:41:02.360Z,13.26
2023-02-19T13:43:37.788Z,13.33
2023-02-19T13:46:14.266Z,13.28
2023-02-19T13:48:48.649Z,13.33
2023-02-19T13:51:49.842Z,13.34
2023-02-19T13:54:25.885Z,13.34
2023-02-19T13:57:22.223Z,13.37
2023-02-19T13:59:55.939Z,13.32
2023-02-19T14:02:35.191Z,13.33
2023-02-19T14:05:11.552Z,13.37
2023-02-19T14:08:02.489Z,13.41
2023-02-19T14:11:05.496Z,13.41
2023-02-19T14:13:58.077Z,13.46
2023-02-19T14:16:51.734Z,13.49
2023-02-19T14:19:47.478Z,13.41
2023-02-19T14:22:52.434Z,13.48
2023-02-19T14:25:38.438Z,13.55
2023-02-19T14:28:35.989Z,13.50
2023-02-19T14:31:20.371Z,13.53
2023-02-19T14:33:55.585Z,13.50
2023-02-19T14:36:35.034Z,13.45
2023-02-19T14:39:15.369Z,13.54
2023-02-19T14:41:51.154Z,13.51
2023-02-19T14:44:26.557Z,13.57
2023-02-19T14:47:05.154Z,13.49
2023-02-19T14:49:43.306Z,13.46
2023-02-19T14:52:21.446Z,13.47
2023-02-19T14:54:59.784Z,13.44
2023-02-19T14:57:37.002Z,13.49
2023-02-19T15:00:23.973Z,13.47
2023-02-19T15:02:59.823Z,13.41
2023-02-19T15:05:34.905Z,13.37
2023-02-19T15:08:13.030Z,13.39
2023-02-19T15:10:48.367Z,13.39
2023-02-19T15:13:26.786Z,13.42
2023-02-19T15:16:00.284Z,13.38
2023-02-19T15:18:36.226Z,13.36
2023-02-19T15:21:10.136Z,13.32
2023-02-19T15:23:43.304Z,13.25
2023-02-19T15:26:22.607Z,13.24
2023-02-19T15:29:00.885Z,13.13
2023-02-19T15:31:33.784Z,13.12
2023-02-19T15:34:06.980Z,13.11
2023-02-19T15:36:39.770Z,13.05
2023-02-19T15:39:23.517Z,12.99
2023-02-19T15:42:01.754Z,13.06
2023-02-19T15:44:53.114Z,13.04
2023-02-19T15:47:37.524Z,13.00
2023-02-19T15:50:15.493Z,12.95
2023-02-19T15:52:54.777Z,12.94
2023-02-19T15:55:37.599Z,12.90
2023-02-19T15:58:17.972Z,12.89
2023-02-19T16:00:55.246Z,12.84
2023-02-19T16:03:30.536Z,12.88
2023-02-19T16:06:11.552Z,12.83
2023-02-19T16:08:46.052Z,12.81
2023-02-19T16:11:30.917Z,12.75
2023-02-19T16:14:25.696Z,12.71
2023-02-19T16:17:07.855Z,12.67
2023-02-19T16:19:47.794Z,12.65
2023-02-19T16:22:24.273Z,12.63
2023-02-19T16:25:01.182Z,12.61
2023-02-19T16:27:37.116Z,12.48
2023-02-19T16:30:30.966Z,12.47
2023-02-19T16:33:40.798Z,12.44
2023-02-19T16:36:36.381Z,12.48
2023-02-19T16:39:20.421Z,12.40
2023-02-19T16:42:16.956Z,12.33
2023-02-19T16:44:49.805Z,12.32
2023-02-19T16:47:34.994Z,12.23
2023-02-19T16:50:14.688Z,12.17
2023-02-19T16:52:54.415Z,12.14
2023-02-19T16:55:28.195Z,12.09
2023-02-19T16:58:00.962Z,12.03
2023-02-19T17:00:33.891Z,11.99
2023-02-19T17:03:11.991Z,11.92
2023-02-19T17:05:46.007Z,11.92
2023-02-19T17:08:37.249Z,11.89
2023-02-19T17:11:13.386Z,11.86
2023-02-19T17:13:47.484Z,11.83
2023-02-19T17:16:23.037Z,11.83
2023-02-19T17:18:57.196Z,11.77
2023-02-19T17:21:31.900Z,11.73
2023-02-19T17:24:05.113Z,11.72
2023-02-19T17:26:38.145Z,11.72
2023-02-19T17:29:14.580Z,11.71
2023-02-19T17:31:47.724Z,11.61
2023-02-19T17:34:21.928Z,11.60
2023-02-19T17:36:54.841Z,11.55
2023-02-19T17:39:28.276Z,11.59
2023-02-19T17:42:01.041Z,11.52
2023-02-19T17:44:33.854Z,11.51
2023-02-19T17:47:07.101Z,11.47
2023-02-19T17:49:41.294Z,11.43
2023-02-19T17:52:17.567Z,11.41
2023-02-19T17:54:50.283Z,11.41
2023-02-19T17:57:23.163Z,11.40
2023-02-19T17:59:55.929Z,11.35
2023-02-19T18:02:28.905Z,11.34
2023-02-19T18:05:03.062Z,11.27
2023-02-19T18:07:36.065Z,11.24
2023-02-19T18:10:09.112Z,11.24
2023-02-19T18:12:45.290Z,11.22
2023-02-19T18:15:21.088Z,11.23
2023-02-19T18:17:54.641Z,11.24
2023-02-19T18:20:31.192Z,11.15
2023-02-19T18:23:04.049Z,11.14
2023-02-19T18:25:36.853Z,11.15
2023-02-19T18:28:10.037Z,11.13
2023-02-19T18:30:42.965Z,11.16
2023-02-19T18:33:15.610Z,11.13
2023-02-19T18:35:50.513Z,11.11
2023-02-19T18:38:23.432Z,11.13
2023-02-19T18:40:58.631Z,11.09
2023-02-19T18:43:31.686Z,11.11
2023-02-19T18:46:04.437Z,11.10
2023-02-19T18:48:37.431Z,11.07
2023-02-19T18:51:12.471Z,11.02
2023-02-19T18:53:45.365Z,10.96
2023-02-19T18:56:18.474Z,10.95
2023-02-19T18:58:51.401Z,10.97
2023-02-19T19:01:24.074Z,10.95
2023-02-19T19:03:57.004Z,10.93
2023-02-19T19:06:31.470Z,10.86
2023-02-19T19:09:05.542Z,10.90
2023-02-19T19:11:38.349Z,10.85
2023-02-19T19:14:11.616Z,10.72
2023-02-19T19:16:44.558Z,10.74
2023-02-19T19:19:17.792Z,10.74
2023-02-19T19:21:53.587Z,10.79
2023-02-19T19:24:26.490Z,10.78
2023-02-19T19:26:59.337Z,10.67
2023-02-19T19:29:32.639Z,10.69
2023-02-19T19:32:08.249Z,10.70
2023-02-19T19:34:42.774Z,10.64
2023-02-19T19:37:17.016Z,10.62
2023-02-19T19:39:49.801Z,10.71
2023-02-19T19:42:22.730Z,10.67
2023-02-19T19:44:57.125Z,10.68
2023-02-19T19:47:30.101Z,10.66
2023-02-19T19:50:03.095Z,10.60
2023-02-19T19:52:37.269Z,10.61
2023-02-19T19:55:10.427Z,10.64
2023-02-19T19:57:43.502Z,10.61
2023-02-19T20:00:19.190Z,10.62
2023-02-19T20:02:52.004Z,10.56
2023-02-19T20:05:24.907Z,10.52
2023-02-19T20:07:59.128Z,10.60
2023-02-19T20:10:31.858Z,10.46
2023-02-19T20:13:04.716Z,10.50
2023-02-19T20:15:37.556Z,10.50
2023-02-19T20:18:10.434Z,10.46
2023-02-19T20:20:43.487Z,10.41
2023-02-19T20:23:17.816Z,10.50
2023-02-19T20:25:50.667Z,10.43
2023-02-19T20:28:23.568Z,10.35
2023-02-19T20:30:56.486Z,10.32
2023-02-19T20:33:29.261Z,10.31
2023-02-19T20:36:02.373Z,10.34
2023-02-19T20:38:36.479Z,10.30
2023-02-19T20:41:09.414Z,10.29
2023-02-19T20:43:42.496Z,10.27
2023-02-19T20:46:15.704Z,10.30
2023-02-19T20:48:50.904Z,10.36
2023-02-19T20:51:24.602Z,10.32
2023-02-19T20:54:01.355Z,10.38
2023-02-19T20:56:34.445Z,10.27
2023-02-19T20:59:10.515Z,10.17
2023-02-19T21:01:44.194Z,10.22
2023-02-19T21:04:18.246Z,10.18
2023-02-19T21:06:52.319Z,10.16
2023-02-19T21:09:28.466Z,10.16
2023-02-19T21:12:02.580Z,10.17
2023-02-19T21:14:35.912Z,10.17
2023-02-19T21:17:08.908Z,10.17
2023-02-19T21:19:41.850Z,10.17
2023-02-19T21:22:15.087Z,10.17
2023-02-19T21:24:57.928Z,10.08
2023-02-19T21:27:30.871Z,10.04
2023-02-19T21:30:03.610Z,10.14
2023-02-19T21:32:40.491Z,10.09
2023-02-19T21:35:13.615Z,10.07
2023-02-19T21:37:46.479Z,10.05
2023-02-19T21:40:24.147Z,10.01
2023-02-19T21:43:30.961Z,10.07
2023-02-19T21:46:07.670Z,10.06
2023-02-19T21:48:40.652Z,9.98
2023-02-19T21:51:13.767Z,9.94
2023-02-19T21:53:48.798Z,9.95
2023-02-19T21:56:28.902Z,9.91
2023-02-19T21:59:09.002Z,9.97
2023-02-19T22:01:43.319Z,9.91
2023-02-19T22:04:19.124Z,9.92
2023-02-19T22:06:56.214Z,9.89
2023-02-19T22:09:29.842Z,9.92
2023-02-19T22:12:04.295Z,9.91
2023-02-19T22:14:37.401Z,9.89
2023-02-19T22:17:10.326Z,9.84
2023-02-19T22:19:43.475Z,9.89
2023-02-19T22:22:16.422Z,9.91
2023-02-19T22:24:49.178Z,9.85
2023-02-19T22:27:24.532Z,9.80
2023-02-19T22:29:57.524Z,9.87
2023-02-19T22:32:30.845Z,9.81
2023-02-19T22:35:06.176Z,9.88
2023-02-19T22:37:39.280Z,9.86
2023-02-19T22:40:13.118Z,9.83
2023-02-19T22:42:47.427Z,9.86
2023-02-19T22:45:20.447Z,9.89
2023-02-19T22:47:56.563Z,9.79
2023-02-19T22:50:29.955Z,9.75
2023-02-19T22:53:02.989Z,9.80
2023-02-19T22:55:35.801Z,9.77
2023-02-19T22:58:10.098Z,9.87
2023-02-19T23:00:43.041Z,9.73
2023-02-19T23:03:15.658Z,9.75
2023-02-19T23:05:59.544Z,9.76
2023-02-19T23:08:32.571Z,9.83
2023-02-19T23:11:05.232Z,9.77
2023-02-19T23:13:41.442Z,9.80
2023-02-19T23:16:14.650Z,9.81
2023-02-19T23:18:48.072Z,9.72
2023-02-19T23:21:21.939Z,9.71
2023-02-19T23:23:54.761Z,9.69
2023-02-19T23:26:27.903Z,9.72
2023-02-19T23:29:02.512Z,9.76
2023-02-19T23:31:35.598Z,9.79
2023-02-19T23:34:08.963Z,9.78
2023-02-19T23:36:42.584Z,9.77
2023-02-19T23:39:18.276Z,9.73
2023-02-19T23:41:52.819Z,9.71
2023-02-19T23:44:27.140Z,9.63
2023-02-19T23:47:00.167Z,9.66
2023-02-19T23:49:32.853Z,9.59
2023-02-19T23:52:06.044Z,9.66
2023-02-19T23:54:39.427Z,9.69
2023-02-19T23:57:12.806Z,9.58
2023-02-19T23:59:49.038Z,9.59
